Time;durP1;ratioP1;P1;durP2;ratioP2;P2;SDS_P1;SDS_P2;PMS_P1;PMS_P2;Temp;Humidity;BMP_temperature;BMP_pressure;BME280_temperature;BME280_humidity;BME280_pressure;Samples;Min_cycle;Max_cycle;Signal;HPM_P1;HPM_P2
2021/01/18 00:01:40;;;;;;;41.37;13.97;;;;;;;-15.25;78.50;99455.47;3551760;27;20414;-50
2021/01/18 00:03:23;;;;;;;43.53;14.95;;;;;;;-15.26;78.58;99452.81;3554311;27;20042;-48
2021/01/18 00:05:06;;;;;;;38.60;14.20;;;;;;;-15.27;78.67;99464.38;3552143;27;20128;-51
2021/01/18 00:06:47;;;;;;;33.08;13.10;;;;;;;-15.27;78.86;99463.47;3552287;27;20050;-50
2021/01/18 00:08:29;;;;;;;34.03;12.65;;;;;;;-15.29;78.54;99467.41;3538800;28;20074;-49
2021/01/18 00:10:14;;;;;;;34.17;11.60;;;;;;;-15.31;78.52;99467.22;3547528;27;20042;-49
2021/01/18 00:11:56;;;;;;;32.05;13.07;;;;;;;-15.30;78.64;99469.00;3551212;27;20057;-50
2021/01/18 00:13:38;;;;;;;31.53;12.03;;;;;;;-15.31;78.78;99469.72;3551306;27;20054;-47
2021/01/18 00:15:21;;;;;;;42.35;12.63;;;;;;;-15.32;77.96;99470.44;3550403;27;20054;-48
2021/01/18 00:17:06;;;;;;;46.78;14.60;;;;;;;-15.33;78.04;99470.28;3552223;27;20046;-49
2021/01/18 00:18:48;;;;;;;;;;;;;;;-15.35;78.24;99471.72;3551223;27;20058;-48
2021/01/18 00:20:29;;;;;;;46.17;15.03;;;;;;;-15.36;77.55;99473.28;3550372;27;19970;-49
2021/01/18 00:22:11;;;;;;;40.53;13.95;;;;;;;-15.39;78.00;99472.97;3552518;27;20042;-49
2021/01/18 00:23:52;;;;;;;39.30;14.75;;;;;;;-15.38;78.16;99476.34;3548936;27;20095;-50
2021/01/18 00:25:34;;;;;;;43.87;14.57;;;;;;;-15.38;78.44;99477.22;3551003;27;20498;-49
2021/01/18 00:27:16;;;;;;;42.25;16.73;;;;;;;-15.38;78.57;99472.25;3553321;27;20050;-49
2021/01/18 00:28:58;;;;;;;51.83;16.40;;;;;;;-15.40;78.32;99470.31;3551159;27;20047;-51
2021/01/18 00:30:39;;;;;;;37.83;13.73;;;;;;;-15.44;78.11;99474.94;3553448;27;20447;-49
2021/01/18 00:32:22;;;;;;;40.40;15.93;;;;;;;-15.48;78.14;99471.94;3552252;27;20042;-51
2021/01/18 00:34:04;;;;;;;30.50;13.55;;;;;;;-15.55;77.64;99480.34;3551595;27;20099;-49
2021/01/18 00:35:47;;;;;;;28.63;13.38;;;;;;;-15.63;77.65;99472.00;3553828;27;20427;-49
2021/01/18 00:37:28;;;;;;;48.70;17.50;;;;;;;-15.69;78.06;99470.44;3551625;27;20054;-49
2021/01/18 00:39:09;;;;;;;42.03;16.92;;;;;;;-15.72;77.99;99480.94;3551894;27;20055;-49
2021/01/18 00:40:51;;;;;;;44.17;18.70;;;;;;;-15.75;78.42;99473.13;3553700;27;20051;-49
2021/01/18 00:42:32;;;;;;;47.30;18.13;;;;;;;-15.75;78.76;99470.63;3551624;27;20076;-48
2021/01/18 00:44:14;;;;;;;44.58;16.52;;;;;;;-15.75;79.01;99474.72;3553154;27;20075;-46
2021/01/18 00:45:55;;;;;;;55.50;17.93;;;;;;;-15.76;78.97;99467.97;3551548;27;20422;-46
2021/01/18 00:47:41;;;;;;;53.63;16.83;;;;;;;-15.80;78.69;99471.72;3551403;27;20133;-47
2021/01/18 00:49:23;;;;;;;49.97;17.40;;;;;;;-15.82;78.81;99473.16;3553783;27;20046;-45
2021/01/18 00:51:05;;;;;;;52.30;17.30;;;;;;;-15.83;78.94;99477.25;3551390;27;20046;-46
2021/01/18 00:52:48;;;;;;;52.30;18.30;;;;;;;-15.85;79.02;99481.19;3551672;27;21293;-45
2021/01/18 00:54:29;;;;;;;52.42;18.40;;;;;;;-15.84;79.08;99477.09;3553726;27;20528;-47
2021/01/18 00:56:13;;;;;;;54.70;19.03;;;;;;;-15.86;79.06;99476.03;3549799;27;20138;-45
2021/01/18 00:57:55;;;;;;;48.17;18.33;;;;;;;-15.86;78.89;99476.03;3551883;27;20103;-45
2021/01/18 00:59:37;;;;;;;50.07;17.83;;;;;;;-15.88;78.99;99472.50;3553826;27;20050;-46
2021/01/18 01:01:18;;;;;;;57.87;19.93;;;;;;;-15.88;79.00;99475.88;3551237;27;20426;-46
2021/01/18 01:03:00;;;;;;;46.47;17.63;;;;;;;-15.88;79.04;99478.34;3551952;27;20099;-50
2021/01/18 01:04:43;;;;;;;58.25;19.50;;;;;;;-15.88;79.11;99475.00;3553445;27;20050;-49
2021/01/18 01:06:24;;;;;;;50.53;18.80;;;;;;;-15.88;79.05;99468.41;3551451;27;20050;-52
2021/01/18 01:08:06;;;;;;;53.73;19.27;;;;;;;-15.86;79.30;99471.94;3553282;27;20058;-47
2021/01/18 01:09:47;;;;;;;62.70;19.50;;;;;;;-15.84;79.33;99477.09;3551829;27;20095;-49
2021/01/18 01:11:29;;;;;;;63.70;21.45;;;;;;;-15.82;79.53;99469.06;3551040;27;20047;-49
2021/01/18 01:13:10;;;;;;;62.63;19.40;;;;;;;-15.82;79.61;99470.66;3553648;27;20054;-49
2021/01/18 01:14:51;;;;;;;61.83;19.70;;;;;;;-15.80;79.54;99474.19;3551206;27;20499;-52
2021/01/18 01:16:33;;;;;;;49.67;20.07;;;;;;;-15.80;79.47;99475.09;3543675;27;20050;-49
2021/01/18 01:18:14;;;;;;;48.83;16.73;;;;;;;-15.80;79.65;99477.59;3550777;27;20516;-46
2021/01/18 01:19:56;;;;;;;52.70;17.60;;;;;;;-15.81;79.71;99475.81;3547890;27;20130;-49
2021/01/18 01:21:38;;;;;;;50.45;17.83;;;;;;;-15.81;79.77;99474.94;3549311;27;20050;-46
2021/01/18 01:23:19;;;;;;;47.13;16.57;;;;;;;-15.81;79.73;99479.91;3551743;27;20049;-46
2021/01/18 01:25:01;;;;;;;51.80;18.43;;;;;;;-15.82;79.46;99476.50;3550707;27;20051;-47
2021/01/18 01:26:42;;;;;;;41.53;15.80;;;;;;;-15.81;79.18;99483.25;3551360;27;20043;-45
2021/01/18 01:28:24;;;;;;;46.87;16.27;;;;;;;-15.83;78.95;99486.34;3553095;27;20051;-49
2021/01/18 01:30:07;;;;;;;51.20;16.73;;;;;;;-15.84;78.63;99482.06;3552132;27;20088;-46
2021/01/18 01:31:49;;;;;;;49.45;17.38;;;;;;;-15.88;78.58;99473.38;3551653;27;20050;-45
2021/01/18 01:33:30;;;;;;;55.00;18.37;;;;;;;-15.89;78.61;99478.19;3551820;27;20414;-48
2021/01/18 01:35:12;;;;;;;59.37;20.67;;;;;;;-15.90;78.99;99469.84;3552698;27;20047;-46
2021/01/18 01:36:54;;;;;;;57.35;19.83;;;;;;;-15.90;79.27;99474.81;3551326;27;20043;-47
2021/01/18 01:38:36;;;;;;;53.97;18.60;;;;;;;-15.90;79.34;99471.44;3551435;27;20055;-46
2021/01/18 01:40:18;;;;;;;60.10;21.13;;;;;;;-15.90;79.47;99472.34;3553227;27;20399;-46
2021/01/18 01:42:00;;;;;;;51.47;20.57;;;;;;;-15.89;79.52;99473.22;3551529;27;20386;-46
2021/01/18 01:43:41;;;;;;;58.70;21.63;;;;;;;-15.90;79.57;99472.34;3550662;27;20122;-46
2021/01/18 01:45:22;;;;;;;55.03;19.27;;;;;;;-15.88;79.48;99470.03;3553350;27;20050;-47
2021/01/18 01:47:04;;;;;;;59.30;19.43;;;;;;;-15.88;79.30;99470.03;3551651;27;20069;-45
2021/01/18 01:48:45;;;;;;;60.60;20.03;;;;;;;-15.89;79.25;99465.75;3551646;27;20070;-46
2021/01/18 01:50:30;;;;;;;62.30;22.27;;;;;;;-15.90;79.18;99467.38;3552216;27;20073;-49
2021/01/18 01:52:12;;;;;;;53.63;20.93;;;;;;;-15.93;79.12;99467.00;3552777;27;20082;-46
2021/01/18 01:53:55;;;;;;;61.00;19.17;;;;;;;-15.94;79.11;99454.41;3550161;27;20066;-49
2021/01/18 01:55:38;;;;;;;61.60;20.67;;;;;;;-15.98;78.89;99455.66;3549981;27;20106;-48
2021/01/18 01:57:20;;;;;;;50.80;18.43;;;;;;;-16.02;78.97;99454.44;3551507;27;20095;-46
2021/01/18 01:59:03;;;;;;;49.30;17.67;;;;;;;-16.03;78.89;99446.81;3551341;27;20043;-46
2021/01/18 02:00:44;;;;;;;57.42;21.10;;;;;;;-16.07;78.65;99449.69;3551274;27;20423;-50
2021/01/18 02:02:25;;;;;;;66.53;23.30;;;;;;;-16.11;78.28;99455.03;3552766;27;20051;-45
2021/01/18 02:04:09;;;;;;;63.43;19.47;;;;;;;-16.15;78.21;99460.34;3551541;27;20047;-48
2021/01/18 02:05:53;;;;;;;50.78;20.13;;;;;;;-16.21;77.91;99456.44;3550556;27;20074;-48
2021/01/18 02:07:34;;;;;;;57.77;20.37;;;;;;;-16.25;77.72;99456.81;3551249;27;20050;-51
2021/01/18 02:09:16;;;;;;;60.35;19.23;;;;;;;-16.30;77.63;99461.97;3553178;27;20058;-45
2021/01/18 02:10:58;;;;;;;48.07;18.50;;;;;;;-16.36;77.24;99462.16;3551131;27;20043;-46
2021/01/18 02:12:40;;;;;;;46.73;17.07;;;;;;;-16.43;77.25;99458.09;3551153;27;20043;-45
2021/01/18 02:14:35;;;;;;;53.90;18.63;;;;;;;-16.46;77.22;99469.28;3552904;27;20463;-45
2021/01/18 02:16:24;;;;;;;39.95;14.70;;;;;;;-16.50;77.11;99469.59;3550270;27;20078;-47
2021/01/18 02:18:23;;;;;;;47.07;16.20;;;;;;;-16.56;77.14;99467.31;3550730;27;20062;-49
2021/01/18 02:20:25;;;;;;;46.93;15.50;;;;;;;-16.60;77.17;99463.59;3548029;27;20112;-48
2021/01/18 02:22:42;;;;;;;51.90;16.17;;;;;;;-16.63;76.87;99464.84;3542790;27;20492;-48
2021/01/18 02:24:56;;;;;;;40.33;14.87;;;;;;;-16.68;76.89;99463.41;3551731;27;20050;-51
2021/01/18 02:26:54;;;;;;;50.60;16.50;;;;;;;-16.75;76.94;99466.78;3551952;27;20051;-49
2021/01/18 02:29:04;;;;;;;44.40;16.53;;;;;;;-16.83;76.87;99463.44;3550454;27;20054;-49
2021/01/18 02:31:33;;;;;;;37.87;14.93;;;;;;;-16.90;76.98;99460.09;3548277;27;20473;-51
2021/01/18 02:33:53;;;;;;;48.00;15.48;;;;;;;-16.96;77.13;99466.13;3550413;27;20181;-51
2021/01/18 02:36:00;;;;;;;43.03;14.90;;;;;;;-17.00;77.12;99471.41;3502779;28;20044;-48
2021/01/18 02:38:11;;;;;;;37.97;14.27;;;;;;;-17.02;77.33;99481.88;3540651;27;20047;-51
2021/01/18 02:40:01;;;;;;;36.83;12.83;;;;;;;-17.05;77.35;99479.94;3547808;27;20062;-48
2021/01/18 02:41:48;;;;;;;37.60;13.70;;;;;;;-17.07;77.21;99475.50;3550267;27;20050;-49
2021/01/18 02:43:36;;;;;;;47.40;14.90;;;;;;;-17.10;77.19;99473.56;3552203;27;20057;-48
2021/01/18 02:45:21;;;;;;;44.83;16.33;;;;;;;-17.15;76.98;99465.56;3550669;27;20567;-49
2021/01/18 02:47:04;;;;;;;37.17;14.93;;;;;;;-17.19;77.06;99468.41;3550201;27;20050;-48
2021/01/18 02:48:48;;;;;;;43.43;15.63;;;;;;;-17.24;76.83;99469.47;3552498;27;20071;-48
2021/01/18 02:50:31;;;;;;;47.20;17.00;;;;;;;-17.26;76.92;99480.78;3550085;27;20055;-49
2021/01/18 02:52:16;;;;;;;40.63;14.30;;;;;;;-17.27;76.93;99488.03;3550197;27;20070;-48
2021/01/18 02:53:58;;;;;;;39.50;14.83;;;;;;;-17.28;77.14;99481.28;3552557;27;20577;-48
2021/01/18 02:55:40;;;;;;;47.90;16.57;;;;;;;-17.27;77.25;99478.13;3549505;27;20046;-49
2021/01/18 02:57:23;;;;;;;41.03;16.67;;;;;;;-17.27;77.31;99488.03;3548610;27;20050;-50
2021/01/18 02:59:04;;;;;;;49.28;17.35;;;;;;;-17.27;77.13;99488.91;3547066;27;20682;-51
2021/01/18 03:00:53;;;;;;;45.73;16.47;;;;;;;-17.28;77.05;99483.78;3548756;27;20088;-46
2021/01/18 03:02:45;;;;;;;44.97;15.63;;;;;;;-17.28;76.91;99494.56;3549920;27;20047;-46
2021/01/18 03:04:40;;;;;;;38.50;14.80;;;;;;;-17.29;76.98;99486.97;3550240;27;20090;-45
2021/01/18 03:06:27;;;;;;;48.93;16.90;;;;;;;-17.31;77.03;99483.41;3549269;27;20047;-46
2021/01/18 03:08:16;;;;;;;42.97;14.67;;;;;;;-17.31;77.03;99485.88;3550170;27;20051;-46
2021/01/18 03:10:02;;;;;;;45.80;15.30;;;;;;;-17.33;76.94;99486.63;3552288;27;20498;-45
2021/01/18 03:11:49;;;;;;;47.13;17.27;;;;;;;-17.35;77.01;99489.59;3549056;27;20088;-46
2021/01/18 03:13:33;;;;;;;47.33;16.20;;;;;;;-17.40;76.64;99489.06;3550387;27;20043;-46
2021/01/18 03:15:15;;;;;;;;;;;;;;;-17.42;76.65;99489.56;3552848;27;20062;-46
2021/01/18 03:16:58;;;;;;;45.73;14.60;;;;;;;-17.49;76.76;99490.47;3550339;27;19978;-45
2021/01/18 03:18:43;;;;;;;44.40;16.47;;;;;;;-17.58;76.49;99499.25;3552783;27;20482;-45
2021/01/18 03:20:25;;;;;;;45.53;15.80;;;;;;;-17.69;76.47;99500.47;3554828;27;20057;-44
2021/01/18 03:22:07;;;;;;;45.53;14.77;;;;;;;-17.79;76.53;99498.50;3552279;27;20560;-45
2021/01/18 03:23:49;;;;;;;45.50;16.77;;;;;;;-17.89;76.72;99502.19;3552620;27;20418;-45
2021/01/18 03:25:31;;;;;;;48.03;16.70;;;;;;;-17.99;76.93;99497.72;3553786;27;20051;-45
2021/01/18 03:27:13;;;;;;;43.00;15.50;;;;;;;-18.05;77.32;99492.03;3552214;27;20078;-46
2021/01/18 03:28:55;;;;;;;49.87;15.97;;;;;;;-18.08;77.43;99499.97;3553980;27;20062;-46
2021/01/18 03:30:37;;;;;;;47.67;17.27;;;;;;;-18.11;77.67;99498.03;3552100;27;20043;-44
2021/01/18 03:32:18;;;;;;;48.23;15.63;;;;;;;-18.13;77.69;99499.38;3550974;27;20042;-46
2021/01/18 03:34:00;;;;;;;70.63;18.47;;;;;;;-18.14;77.73;99501.72;3554340;27;20445;-46
2021/01/18 03:35:42;;;;;;;52.70;18.03;;;;;;;-18.18;77.78;99494.59;3552401;27;20047;-45
2021/01/18 03:37:24;;;;;;;52.77;16.83;;;;;;;-18.23;77.87;99505.53;3552537;27;20078;-44
2021/01/18 03:39:06;;;;;;;48.37;17.53;;;;;;;-18.26;77.93;99502.69;3553449;27;20525;-45
2021/01/18 03:40:49;;;;;;;53.63;18.93;;;;;;;-18.28;78.10;99507.47;3552271;27;20066;-45
2021/01/18 03:42:30;;;;;;;57.70;16.95;;;;;;;-18.29;78.06;99511.50;3554135;27;20080;-45
2021/01/18 03:44:12;;;;;;;54.50;19.30;;;;;;;-18.30;78.00;99506.38;3552856;27;20135;-45
2021/01/18 03:45:54;;;;;;;60.00;21.60;;;;;;;-18.31;78.04;99504.59;3552342;27;20053;-45
2021/01/18 03:47:35;;;;;;;58.13;18.37;;;;;;;-18.35;77.72;99502.47;3554514;27;20051;-45
2021/01/18 03:49:17;;;;;;;67.80;21.80;;;;;;;-18.40;77.71;99501.00;3552160;27;20054;-45
2021/01/18 03:50:58;;;;;;;60.70;22.20;;;;;;;-18.45;77.84;99502.03;3552368;27;20411;-44
2021/01/18 03:52:40;;;;;;;66.07;23.00;;;;;;;-18.51;77.94;99498.09;3554172;27;20047;-45
2021/01/18 03:54:22;;;;;;;56.63;19.37;;;;;;;-18.55;78.00;99491.03;3551666;27;20054;-45
2021/01/18 03:56:04;;;;;;;56.97;18.17;;;;;;;-18.56;78.33;99496.66;3553285;27;20050;-48
2021/01/18 03:57:48;;;;;;;46.97;16.20;;;;;;;-18.57;78.52;99496.47;3552156;27;20047;-46
2021/01/18 03:59:30;;;;;;;44.07;15.13;;;;;;;-18.56;78.51;99499.13;3552403;27;20091;-46
2021/01/18 04:01:12;;;;;;;46.00;15.83;;;;;;;-18.56;78.61;99488.34;3554427;27;20046;-45
2021/01/18 04:02:54;;;;;;;42.37;15.87;;;;;;;-18.59;78.55;99490.44;3552072;27;20134;-45
2021/01/18 04:04:36;;;;;;;45.10;14.77;;;;;;;-18.61;78.64;99495.19;3551867;27;20046;-45
2021/01/18 04:06:17;;;;;;;51.27;16.20;;;;;;;-18.62;78.72;99485.13;3554305;27;20111;-45
2021/01/18 04:07:59;;;;;;;36.80;14.33;;;;;;;-18.64;78.39;99493.94;3551854;27;20194;-45
2021/01/18 04:09:41;;;;;;;48.00;16.63;;;;;;;-18.68;78.36;99493.56;3552016;27;20503;-45
2021/01/18 04:11:22;;;;;;;51.03;16.43;;;;;;;-18.70;78.27;99494.94;3553974;27;20046;-44
2021/01/18 04:13:04;;;;;;;43.73;15.87;;;;;;;-18.72;78.24;99493.00;3551914;27;20124;-44
2021/01/18 04:14:45;;;;;;;44.47;15.97;;;;;;;-18.76;78.04;99490.88;3554203;27;20050;-46
2021/01/18 04:16:27;;;;;;;43.27;14.50;;;;;;;-18.80;77.83;99484.66;3551108;27;20175;-45
2021/01/18 04:18:09;;;;;;;44.53;14.07;;;;;;;-18.85;77.78;99485.66;3551654;27;20133;-45
2021/01/18 04:19:50;;;;;;;42.30;15.63;;;;;;;-18.88;77.61;99490.25;3554093;27;20111;-45
2021/01/18 04:21:32;;;;;;;42.37;15.80;;;;;;;-18.92;77.53;99495.50;3551730;27;20495;-45
2021/01/18 04:23:13;;;;;;;40.60;13.17;;;;;;;-18.95;77.46;99488.59;3551981;27;20052;-45
2021/01/18 04:24:56;;;;;;;45.83;15.60;;;;;;;-18.97;77.27;99501.47;3553959;27;20051;-44
2021/01/18 04:26:37;;;;;;;34.97;13.57;;;;;;;-19.01;76.96;99496.84;3551796;27;20043;-44
2021/01/18 04:28:19;;;;;;;41.97;14.47;;;;;;;-19.07;76.82;99489.56;3553108;27;20058;-45
2021/01/18 04:30:00;;;;;;;38.13;12.50;;;;;;;-19.11;76.67;99503.13;3551866;27;20396;-44
2021/01/18 04:31:45;;;;;;;42.87;14.30;;;;;;;-19.18;76.11;99498.09;3551606;27;20049;-45
2021/01/18 04:33:27;;;;;;;43.07;14.30;;;;;;;-19.23;76.17;99504.06;3554099;27;20064;-44
2021/01/18 04:35:09;;;;;;;41.20;12.90;;;;;;;-19.28;76.16;99507.53;3552031;27;20082;-44
2021/01/18 04:36:51;;;;;;;36.67;14.60;;;;;;;-19.33;76.35;99503.59;3551434;27;20526;-45
2021/01/18 04:38:33;;;;;;;36.80;12.97;;;;;;;-19.36;76.37;99510.63;3554008;27;20046;-46
2021/01/18 04:40:18;;;;;;;44.30;13.37;;;;;;;-19.39;76.48;99511.13;3551452;27;20046;-44
2021/01/18 04:42:00;;;;;;;51.17;15.23;;;;;;;-19.41;76.55;99506.66;3551706;27;20529;-46
2021/01/18 04:43:44;;;;;;;45.93;14.53;;;;;;;-19.44;76.61;99509.66;3553753;27;20076;-45
2021/01/18 04:45:27;;;;;;;43.30;13.47;;;;;;;-19.46;76.63;99508.59;3551736;27;20115;-46
2021/01/18 04:47:12;;;;;;;44.50;15.65;;;;;;;-19.46;76.75;99513.53;3552316;27;20410;-45
2021/01/18 04:48:55;;;;;;;44.07;14.57;;;;;;;-19.47;76.79;99522.53;3553088;27;20427;-45
2021/01/18 04:50:37;;;;;;;31.60;12.70;;;;;;;-19.46;77.06;99523.41;3550486;27;20076;-46
2021/01/18 04:52:26;;;;;;;39.07;14.90;;;;;;;-19.46;77.07;99523.41;3553167;27;20090;-44
2021/01/18 04:54:16;;;;;;;38.00;13.30;;;;;;;-19.46;77.41;99529.22;3552151;27;20054;-46
2021/01/18 04:56:23;;;;;;;41.23;13.23;;;;;;;-19.45;77.93;99526.06;3551526;27;20042;-45
2021/01/18 04:58:10;;;;;;;42.93;13.10;;;;;;;-19.40;78.48;99529.09;3540811;27;20055;-45
2021/01/18 04:59:55;;;;;;;37.07;13.37;;;;;;;-19.36;78.71;99531.28;3553834;27;20072;-45
2021/01/18 05:01:41;;;;;;;43.33;14.63;;;;;;;-19.32;78.65;99520.22;3551378;27;20464;-45
2021/01/18 05:03:24;;;;;;;38.37;14.03;;;;;;;-19.32;78.71;99521.09;3551674;27;20479;-44
2021/01/18 05:05:20;;;;;;;41.50;15.90;;;;;;;-19.29;78.91;99526.41;3539493;28;20043;-45
2021/01/18 05:07:08;;;;;;;35.07;13.80;;;;;;;-19.28;78.76;99529.78;3549862;27;20046;-45
2021/01/18 05:09:18;;;;;;;43.50;15.10;;;;;;;-19.28;78.78;99528.19;3551245;27;20538;-45
2021/01/18 05:11:01;;;;;;;30.63;11.27;;;;;;;-19.28;78.98;99530.66;3553031;27;20133;-45
2021/01/18 05:12:44;;;;;;;36.13;14.23;;;;;;;-19.27;79.17;99532.44;3551758;27;20055;-45
2021/01/18 05:14:25;;;;;;;47.05;15.63;;;;;;;-19.25;79.17;99535.09;3550183;27;20077;-44
2021/01/18 05:16:07;;;;;;;38.90;13.00;;;;;;;-19.24;79.11;99539.31;3553018;27;20051;-45
2021/01/18 05:17:50;;;;;;;31.30;13.30;;;;;;;-19.24;78.90;99534.38;3551607;27;20137;-45
2021/01/18 05:19:32;;;;;;;37.17;12.30;;;;;;;-19.23;78.77;99535.31;3551071;27;20058;-44
2021/01/18 05:21:14;;;;;;;52.63;15.00;;;;;;;-19.24;78.66;99541.81;3553218;27;20047;-45
2021/01/18 05:22:56;;;;;;;46.27;15.53;;;;;;;-19.25;78.61;99547.47;3551316;27;20043;-44
2021/01/18 05:24:37;;;;;;;51.40;16.13;;;;;;;-19.30;78.46;99548.47;3551218;27;20423;-45
2021/01/18 05:26:20;;;;;;;49.00;15.93;;;;;;;-19.32;78.29;99557.25;3552957;27;20111;-45
2021/01/18 05:28:05;;;;;;;42.75;14.32;;;;;;;-19.35;78.38;99551.94;3551170;27;20145;-44
2021/01/18 05:29:54;;;;;;;49.07;17.43;;;;;;;-19.38;78.41;99557.34;3552672;27;20078;-46
2021/01/18 05:31:38;;;;;;;46.93;15.30;;;;;;;-19.40;78.59;99556.28;3552562;27;20073;-45
2021/01/18 05:33:20;;;;;;;51.73;17.60;;;;;;;-19.41;78.60;99558.53;3550867;27;20129;-45
2021/01/18 05:35:12;;;;;;;56.53;17.73;;;;;;;-19.42;78.64;99559.25;3552781;27;20430;-44
2021/01/18 05:36:54;;;;;;;48.03;16.40;;;;;;;-19.41;78.83;99558.53;3552483;27;20054;-44
2021/01/18 05:38:35;;;;;;;64.70;16.73;;;;;;;-19.41;78.83;99554.50;3551533;27;20074;-46
2021/01/18 05:40:22;;;;;;;47.77;16.97;;;;;;;-19.41;78.77;99558.53;3552235;27;20091;-49
2021/01/18 05:42:18;;;;;;;47.40;16.73;;;;;;;-19.40;78.95;99563.69;3550042;27;20042;-49
2021/01/18 05:44:02;;;;;;;58.30;17.07;;;;;;;-19.38;78.91;99563.88;3550835;27;20058;-49
2021/01/18 05:45:44;;;;;;;52.07;17.20;;;;;;;-19.37;78.83;99564.06;3553092;27;20541;-48
2021/01/18 05:47:26;;;;;;;51.17;17.13;;;;;;;-19.33;78.94;99572.75;3549722;27;20046;-48
2021/01/18 05:49:10;;;;;;;46.47;15.50;;;;;;;-19.29;78.94;99572.44;3550671;27;20073;-48
2021/01/18 05:50:55;;;;;;;45.17;14.60;;;;;;;-19.28;78.44;99576.72;3553089;27;20056;-48
2021/01/18 05:52:37;;;;;;;48.63;16.10;;;;;;;-19.30;78.09;99571.56;3550653;27;20050;-48
2021/01/18 05:54:21;;;;;;;40.17;14.07;;;;;;;-19.34;77.79;99573.44;3551087;27;20131;-47
2021/01/18 05:56:16;;;;;;;42.83;14.90;;;;;;;-19.37;77.24;99583.84;3552731;27;20058;-50
2021/01/18 05:58:00;;;;;;;48.63;14.20;;;;;;;-19.40;77.20;99588.38;3548456;27;20042;-49
2021/01/18 05:59:42;;;;;;;44.35;13.20;;;;;;;-19.44;77.25;99584.63;3551231;27;20103;-48
2021/01/18 06:01:38;;;;;;;43.60;15.17;;;;;;;-19.45;77.28;99584.44;3552119;27;20721;-49
2021/01/18 06:03:27;;;;;;;38.13;14.27;;;;;;;-19.46;77.35;99583.56;3550790;27;20051;-47
2021/01/18 06:05:09;;;;;;;48.20;14.67;;;;;;;-19.44;77.52;99591.16;3551138;27;20050;-49
2021/01/18 06:06:56;;;;;;;41.77;15.30;;;;;;;-19.43;77.70;99590.50;3552794;27;20046;-47
2021/01/18 06:08:53;;;;;;;48.33;14.80;;;;;;;-19.37;78.20;99585.44;3550440;27;20465;-51
2021/01/18 06:10:35;;;;;;;43.07;15.37;;;;;;;-19.33;78.42;99587.59;3550605;27;20054;-45
2021/01/18 06:12:21;;;;;;;43.13;15.07;;;;;;;-19.31;78.26;99587.09;3552121;27;20054;-44
2021/01/18 06:14:04;;;;;;;45.57;16.23;;;;;;;-19.25;78.66;99594.41;3549978;27;20055;-44
2021/01/18 06:15:46;;;;;;;;;;;;;;;-19.20;78.67;99587.56;3550757;27;20410;-45
2021/01/18 06:17:29;;;;;;;43.07;14.67;;;;;;;-19.14;79.01;99586.75;3551822;27;20386;-45
2021/01/18 06:19:20;;;;;;;51.83;17.40;;;;;;;-19.08;79.39;99586.63;3549554;27;20503;-45
2021/01/18 06:21:05;;;;;;;53.77;16.50;;;;;;;-18.99;79.67;99582.88;3551351;27;20668;-45
2021/01/18 06:22:50;;;;;;;51.13;15.93;;;;;;;-18.89;79.80;99580.81;3551595;27;20126;-45
2021/01/18 06:24:34;;;;;;;55.30;17.40;;;;;;;-18.77;80.24;99588.91;3550281;27;20047;-44
2021/01/18 06:26:15;;;;;;;52.45;17.30;;;;;;;-18.62;80.48;99584.03;3552020;27;20507;-45
2021/01/18 06:27:58;;;;;;;57.93;18.30;;;;;;;-18.52;80.46;99590.31;3550342;27;20058;-45
2021/01/18 06:29:42;;;;;;;63.47;19.20;;;;;;;-18.42;80.31;99584.06;3550238;27;20038;-44
2021/01/18 06:31:43;;;;;;;52.93;17.60;;;;;;;-18.33;80.24;99588.53;3552101;27;20086;-46
2021/01/18 06:33:36;;;;;;;57.47;19.20;;;;;;;-18.24;80.18;99588.78;3550786;27;20051;-44
2021/01/18 06:35:21;;;;;;;46.90;17.20;;;;;;;-18.16;80.26;99600.53;3550068;27;20058;-44
2021/01/18 06:37:03;;;;;;;57.13;17.83;;;;;;;-18.07;80.25;99599.88;3552720;27;20085;-44
2021/01/18 06:38:50;;;;;;;54.53;17.10;;;;;;;-18.01;80.17;99603.97;3549355;27;20043;-44
2021/01/18 06:40:34;;;;;;;53.30;18.87;;;;;;;-17.94;80.17;99595.72;3550077;27;20070;-45
2021/01/18 06:42:21;;;;;;;56.43;20.07;;;;;;;-17.87;80.31;99598.25;3551600;27;20069;-44
2021/01/18 06:44:04;;;;;;;56.07;19.23;;;;;;;-17.80;80.21;99594.91;3546422;27;20047;-48
2021/01/18 06:45:45;;;;;;;62.67;20.35;;;;;;;-17.73;80.08;99597.41;3546407;27;20050;-49
2021/01/18 06:47:32;;;;;;;58.33;20.43;;;;;;;-17.66;80.22;99599.06;3546075;27;20553;-47
2021/01/18 06:49:15;;;;;;;57.63;19.77;;;;;;;-17.58;80.03;99603.31;3549501;27;20073;-47
2021/01/18 06:51:02;;;;;;;50.87;18.40;;;;;;;-17.52;79.89;99604.09;3549667;27;20073;-48
2021/01/18 06:52:47;;;;;;;68.60;21.80;;;;;;;-17.45;80.24;99610.66;3551524;27;20043;-47
2021/01/18 06:54:29;;;;;;;63.80;20.00;;;;;;;-17.37;80.35;99613.38;3549779;27;20049;-52
2021/01/18 06:56:48;;;;;;;55.57;19.80;;;;;;;-17.31;80.18;99615.69;3548491;27;20047;-49
2021/01/18 06:58:40;;;;;;;55.57;19.33;;;;;;;-17.23;80.19;99611.63;3550558;27;20078;-48
2021/01/18 07:00:21;;;;;;;47.20;18.30;;;;;;;-17.17;80.05;99615.75;3549967;27;20039;-45
2021/01/18 07:02:23;;;;;;;63.77;21.33;;;;;;;-17.08;80.30;99615.94;3549702;27;20053;-44
2021/01/18 07:04:07;;;;;;;66.57;20.67;;;;;;;-16.99;80.21;99616.16;3549178;27;20534;-45
2021/01/18 07:05:54;;;;;;;;;;;;;;;-16.92;80.21;99616.19;3550716;27;20050;-45
2021/01/18 07:07:37;;;;;;;53.00;19.43;;;;;;;-16.82;80.12;99628.03;3550158;27;19966;-44
2021/01/18 07:09:19;;;;;;;50.40;17.33;;;;;;;-16.81;79.41;99628.22;3548761;27;20485;-44
2021/01/18 07:11:10;;;;;;;66.67;20.73;;;;;;;-16.83;78.92;99624.66;3549148;27;20050;-45
2021/01/18 07:12:54;;;;;;;64.23;20.97;;;;;;;-16.82;78.91;99623.97;3549420;27;20046;-44
2021/01/18 07:14:36;;;;;;;50.80;19.37;;;;;;;-16.84;78.73;99620.44;3551225;27;20046;-44
2021/01/18 07:16:19;;;;;;;62.03;21.93;;;;;;;-16.79;79.01;99621.84;3548360;27;20070;-44
2021/01/18 07:18:06;;;;;;;71.57;23.50;;;;;;;-16.75;79.09;99623.09;3549068;27;20046;-49
2021/01/18 07:19:59;;;;;;;70.03;21.70;;;;;;;-16.70;79.05;99628.59;3551110;27;20046;-50
2021/01/18 07:22:23;;;;;;;60.60;21.37;;;;;;;-16.64;79.07;99634.31;3550067;27;20522;-52
2021/01/18 07:24:10;;;;;;;57.85;17.02;;;;;;;-16.59;78.79;99626.69;3547981;27;20055;-46
2021/01/18 07:26:12;;;;;;;66.50;22.27;;;;;;;-16.52;79.15;99625.81;3549809;27;20050;-46
2021/01/18 07:27:56;;;;;;;62.10;20.83;;;;;;;-16.45;79.08;99622.44;3544966;27;20498;-46
2021/01/18 07:29:38;;;;;;;46.60;17.90;;;;;;;-16.38;79.01;99618.38;3548813;27;20042;-46
2021/01/18 07:31:19;;;;;;;67.80;22.80;;;;;;;-16.29;78.79;99626.03;3548456;27;20043;-47
2021/01/18 07:33:07;;;;;;;69.18;23.88;;;;;;;-16.19;78.97;99618.03;3550258;27;20073;-45
2021/01/18 07:34:49;;;;;;;53.77;20.80;;;;;;;-16.08;79.27;99620.19;3547068;27;20078;-45
2021/01/18 07:36:32;;;;;;;68.47;25.57;;;;;;;-15.91;79.96;99618.75;3547959;27;20047;-46
2021/01/18 07:38:15;;;;;;;76.40;29.27;;;;;;;-15.72;80.24;99627.56;3549088;27;20074;-45
2021/01/18 07:40:08;;;;;;;;;;;;;;;-15.63;79.20;99626.09;3547596;27;20043;-47
2021/01/18 07:41:49;;;;;;;63.80;23.20;;;;;;;-15.50;79.37;99623.41;3545764;27;19977;-45
2021/01/18 07:43:34;;;;;;;60.93;21.37;;;;;;;-15.35;79.37;99616.81;3548568;27;20042;-46
2021/01/18 07:48:09;;;;;;;71.17;23.87;;;;;;;-14.86;80.02;99621.44;3547341;27;20146;-47
2021/01/18 07:49:51;;;;;;;75.03;24.80;;;;;;;-14.62;79.12;99620.72;3549290;27;20577;-51
2021/01/18 07:51:32;;;;;;;77.07;26.15;;;;;;;-14.50;78.74;99619.56;3547677;27;20483;-49
2021/01/18 07:53:15;;;;;;;64.68;21.17;;;;;;;-14.34;78.03;99621.25;3547540;27;20046;-51
2021/01/18 07:54:59;;;;;;;62.58;18.35;;;;;;;-14.32;75.57;99623.19;3549777;27;20051;-49
2021/01/18 07:56:41;;;;;;;60.13;21.53;;;;;;;-14.31;75.73;99636.53;3544661;27;20047;-46
2021/01/18 07:58:22;;;;;;;69.53;22.83;;;;;;;-14.28;75.24;99632.78;3547374;27;20051;-46
2021/01/18 08:00:37;;;;;;;63.05;24.95;;;;;;;-14.38;73.87;99637.47;3549648;27;20054;-46
2021/01/18 08:02:24;;;;;;;61.60;22.88;;;;;;;-14.47;73.47;99632.38;3548836;27;20468;-46
2021/01/18 08:04:16;;;;;;;80.50;24.93;;;;;;;-14.57;73.43;99629.56;3548504;27;20485;-46